createdAt,value
2018-04-25T00:00:53.507Z,14.16
2018-04-25T00:03:21.763Z,14.27
2018-04-25T00:05:50.042Z,14.31
2018-04-25T00:08:18.415Z,14.46
2018-04-25T00:10:46.820Z,14.51
2018-04-25T00:13:15.169Z,14.55
2018-04-25T00:15:43.556Z,14.52
2018-04-25T00:18:11.847Z,14.42
2018-04-25T00:20:40.108Z,14.40
2018-04-25T00:23:08.378Z,14.28
2018-04-25T00:25:36.654Z,14.24
2018-04-25T00:28:04.934Z,14.17
2018-04-25T00:30:33.310Z,14.07
2018-04-25T00:33:01.611Z,13.96
2018-04-25T00:35:29.967Z,14.01
2018-04-25T00:37:58.340Z,14.02
2018-04-25T00:40:26.607Z,14.07
2018-04-25T00:42:54.897Z,14.11
2018-04-25T00:45:23.225Z,14.09
2018-04-25T00:47:51.511Z,14.01
2018-04-25T00:50:19.770Z,13.87
2018-04-25T00:52:48.038Z,13.86
2018-04-25T00:55:16.313Z,13.85
2018-04-25T00:57:44.576Z,13.88
2018-04-25T01:00:12.852Z,13.90
2018-04-25T01:02:41.107Z,13.93
2018-04-25T01:05:09.382Z,13.96
2018-04-25T01:07:37.659Z,13.85
2018-04-25T01:10:05.954Z,13.80
2018-04-25T01:12:34.251Z,13.79
2018-04-25T01:15:02.591Z,13.78
2018-04-25T01:17:30.847Z,13.80
2018-04-25T01:19:59.897Z,13.71
2018-04-25T01:22:28.163Z,13.72
2018-04-25T01:24:56.528Z,13.67
2018-04-25T01:27:24.791Z,13.65
2018-04-25T01:29:53.064Z,13.60
2018-04-25T01:32:21.347Z,13.57
2018-04-25T01:34:52.792Z,13.49
2018-04-25T01:37:32.731Z,13.26
2018-04-25T01:40:00.989Z,13.19
2018-04-25T01:45:42.827Z,13.13
2018-04-25T01:48:16.264Z,13.15
2018-04-25T01:50:45.279Z,13.11
2018-04-25T01:53:31.439Z,13.12
2018-04-25T01:56:17.618Z,13.06
2018-04-25T01:59:03.749Z,13.02
2018-04-25T02:01:31.214Z,12.98
2018-04-25T02:04:00.371Z,12.95
2018-04-25T02:06:28.754Z,12.80
2018-04-25T02:08:57.021Z,12.72
2018-04-25T02:11:25.306Z,12.53
2018-04-25T02:13:53.563Z,12.57
2018-04-25T02:16:21.824Z,12.56
2018-04-25T02:18:50.944Z,12.63
2018-04-25T02:21:19.199Z,12.51
2018-04-25T02:23:47.475Z,12.62
2018-04-25T02:26:15.780Z,12.66
2018-04-25T02:28:44.036Z,12.72
2018-04-25T02:31:12.332Z,12.60
2018-04-25T02:33:40.596Z,12.79
2018-04-25T02:36:08.885Z,12.81
2018-04-25T02:38:37.155Z,12.84
2018-04-25T02:41:05.449Z,12.83
2018-04-25T02:43:33.736Z,12.87
2018-04-25T02:46:01.991Z,12.98
2018-04-25T02:48:30.379Z,13.10
2018-04-25T02:50:58.651Z,13.23
2018-04-25T02:53:26.938Z,13.39
2018-04-25T02:55:55.232Z,13.26
2018-04-25T02:58:23.495Z,13.36
2018-04-25T03:00:51.790Z,13.29
2018-04-25T03:03:20.046Z,13.44
2018-04-25T03:05:48.403Z,13.53
2018-04-25T03:08:16.672Z,13.58
2018-04-25T03:10:44.939Z,13.55
2018-04-25T03:13:13.286Z,13.43
2018-04-25T03:15:42.318Z,13.56
2018-04-25T03:18:10.604Z,13.70
2018-04-25T03:20:38.999Z,13.61
2018-04-25T03:23:07.263Z,13.53
2018-04-25T03:25:35.550Z,13.54
2018-04-25T03:28:03.950Z,13.68
2018-04-25T03:30:32.249Z,13.60
2018-04-25T03:33:00.592Z,13.65
2018-04-25T03:35:28.875Z,13.59
2018-04-25T03:37:57.146Z,13.64
2018-04-25T03:40:25.410Z,13.39
2018-04-25T03:42:53.691Z,13.58
2018-04-25T03:45:21.979Z,13.47
2018-04-25T03:47:50.240Z,13.52
2018-04-25T03:50:18.525Z,13.47
2018-04-25T03:52:46.886Z,13.63
2018-04-25T03:55:15.179Z,13.45
2018-04-25T03:57:43.446Z,13.45
2018-04-25T04:00:11.710Z,13.42
2018-04-25T04:02:40.019Z,13.46
2018-04-25T04:05:08.283Z,13.42
2018-04-25T04:07:36.649Z,13.40
2018-04-25T04:10:04.907Z,13.31
2018-04-25T04:12:33.170Z,13.39
2018-04-25T04:15:01.476Z,13.37
2018-04-25T04:17:29.743Z,13.42
2018-04-25T04:19:58.114Z,13.50
2018-04-25T04:22:26.392Z,13.57
2018-04-25T04:24:54.705Z,13.63
2018-04-25T04:27:22.954Z,13.68
2018-04-25T04:29:51.231Z,13.76
2018-04-25T04:32:19.509Z,13.68
2018-04-25T04:34:47.787Z,13.39
2018-04-25T04:37:16.057Z,13.55
2018-04-25T04:39:44.335Z,13.54
2018-04-25T04:42:12.608Z,13.61
2018-04-25T04:44:40.879Z,13.50
2018-04-25T04:47:09.142Z,13.46
2018-04-25T04:49:37.516Z,13.48
2018-04-25T04:52:05.743Z,13.58
2018-04-25T04:54:34.007Z,13.68
2018-04-25T04:57:02.299Z,13.49
2018-04-25T04:59:30.566Z,13.74
2018-04-25T05:01:58.928Z,13.83
2018-04-25T05:04:27.194Z,13.86
2018-04-25T05:06:55.460Z,13.99
2018-04-25T05:09:23.755Z,13.95
2018-04-25T05:11:52.108Z,14.07
2018-04-25T05:14:20.396Z,14.09
2018-04-25T05:16:48.667Z,14.21
2018-04-25T05:19:16.966Z,14.13
2018-04-25T05:21:45.253Z,14.22
2018-04-25T05:24:13.520Z,14.25
2018-04-25T05:26:42.821Z,14.22
2018-04-25T05:29:11.083Z,14.33
2018-04-25T05:31:39.371Z,14.48
2018-04-25T05:34:07.744Z,14.48
2018-04-25T05:36:36.024Z,14.51
2018-04-25T05:39:04.291Z,14.59
2018-04-25T05:41:32.574Z,14.69
2018-04-25T05:44:00.842Z,14.72
2018-04-25T05:46:29.107Z,14.84
2018-04-25T05:48:57.394Z,14.86
2018-04-25T05:51:25.685Z,14.86
2018-04-25T05:53:54.055Z,14.55
2018-04-25T05:56:22.310Z,14.59
2018-04-25T05:58:50.571Z,14.70
2018-04-25T06:01:18.842Z,14.59
2018-04-25T06:03:47.870Z,14.49
2018-04-25T06:06:16.914Z,14.47
2018-04-25T06:08:45.194Z,14.45
2018-04-25T06:11:13.527Z,14.52
2018-04-25T06:13:41.796Z,14.42
2018-04-25T06:16:10.058Z,14.46
2018-04-25T06:18:38.341Z,14.31
2018-04-25T06:21:06.635Z,14.19
2018-04-25T06:23:35.010Z,14.23
2018-04-25T06:26:03.280Z,14.27
2018-04-25T06:28:31.542Z,14.45
2018-04-25T06:30:59.827Z,14.29
2018-04-25T06:33:28.279Z,14.46
2018-04-25T06:35:57.323Z,14.42
2018-04-25T06:38:25.695Z,14.55
2018-04-25T06:40:53.996Z,14.70
2018-04-25T06:43:22.343Z,14.92
2018-04-25T06:45:50.606Z,14.91
2018-04-25T06:48:18.907Z,14.86
2018-04-25T06:50:47.223Z,15.26
2018-04-25T06:53:16.226Z,15.33
2018-04-25T06:55:45.274Z,15.19
2018-04-25T06:58:13.557Z,15.15
2018-04-25T07:00:41.847Z,15.54
2018-04-25T07:03:10.130Z,15.49
2018-04-25T07:05:39.213Z,15.38
2018-04-25T07:08:07.547Z,15.47
2018-04-25T07:10:35.843Z,15.34
2018-04-25T07:13:04.211Z,15.25
2018-04-25T07:15:32.478Z,15.21
2018-04-25T07:18:00.761Z,15.27
2018-04-25T07:20:29.047Z,15.30
2018-04-25T07:22:57.315Z,15.20
2018-04-25T07:25:25.596Z,15.19
2018-04-25T07:27:53.854Z,15.26
2018-04-25T07:30:22.116Z,15.20
2018-04-25T07:32:51.150Z,15.20
2018-04-25T07:35:19.468Z,15.23
2018-04-25T07:37:47.756Z,15.36
2018-04-25T07:40:16.801Z,15.15
2018-04-25T07:42:45.080Z,15.10
2018-04-25T07:45:13.375Z,14.95
2018-04-25T07:47:41.634Z,14.82
2018-04-25T07:50:09.911Z,14.91
2018-04-25T07:52:38.167Z,15.06
2018-04-25T07:55:06.434Z,15.14
2018-04-25T07:57:34.751Z,15.22
2018-04-25T08:00:03.042Z,15.19
2018-04-25T08:02:31.310Z,15.07
2018-04-25T08:04:59.575Z,15.07
2018-04-25T08:07:27.854Z,15.14
2018-04-25T08:09:56.144Z,15.10
2018-04-25T08:12:42.268Z,15.43
2018-04-25T08:15:28.116Z,15.31
2018-04-25T08:18:13.964Z,15.45
2018-04-25T08:23:58.503Z,15.64
2018-04-25T08:26:26.770Z,15.52
2018-04-25T08:28:55.036Z,15.44
2018-04-25T08:31:23.327Z,15.63
2018-04-25T08:33:51.599Z,15.80
2018-04-25T08:36:19.875Z,15.87
2018-04-25T08:38:48.134Z,15.91
2018-04-25T08:41:16.420Z,15.86
2018-04-25T08:43:44.714Z,15.81
2018-04-25T08:46:12.999Z,15.51
2018-04-25T08:48:41.282Z,15.44
2018-04-25T08:51:10.332Z,15.31
2018-04-25T08:53:38.608Z,15.03
2018-04-25T08:56:06.942Z,14.99
2018-04-25T08:58:36.028Z,14.95
2018-04-25T09:01:05.057Z,15.10
2018-04-25T09:03:33.329Z,15.31
2018-04-25T09:06:01.595Z,15.57
2018-04-25T09:08:29.873Z,15.55
2018-04-25T09:10:58.145Z,15.32
2018-04-25T09:13:26.422Z,15.67
2018-04-25T09:15:54.709Z,15.63
2018-04-25T09:18:22.991Z,15.77
2018-04-25T09:20:51.275Z,15.56
2018-04-25T09:23:19.527Z,15.44
2018-04-25T09:25:47.806Z,15.58
2018-04-25T09:28:16.114Z,15.75
2018-04-25T09:30:44.387Z,15.52
2018-04-25T09:33:12.680Z,14.93
2018-04-25T09:35:41.028Z,14.47
2018-04-25T09:38:09.475Z,14.11
2018-04-25T09:40:37.705Z,13.94
2018-04-25T09:43:06.065Z,13.89
2018-04-25T09:45:34.339Z,13.88
2018-04-25T09:48:02.604Z,13.77
2018-04-25T09:50:30.886Z,14.27
2018-04-25T09:52:59.268Z,14.48
2018-04-25T09:55:27.551Z,14.54
2018-04-25T09:57:55.941Z,14.65
2018-04-25T10:00:29.638Z,14.88
2018-04-25T10:02:57.935Z,15.00
2018-04-25T10:05:26.209Z,14.98
2018-04-25T10:07:54.479Z,15.26
2018-04-25T10:10:22.779Z,15.46
2018-04-25T10:12:52.554Z,15.55
2018-04-25T10:15:20.920Z,15.49
2018-04-25T10:17:49.096Z,15.42
2018-04-25T10:20:17.446Z,15.34
2018-04-25T10:22:46.487Z,15.47
2018-04-25T10:25:14.851Z,15.48
2018-04-25T10:27:43.139Z,15.86
2018-04-25T10:30:11.499Z,16.14
2018-04-25T10:32:39.771Z,16.41
2018-04-25T10:35:08.096Z,16.56
2018-04-25T10:37:36.400Z,15.90
2018-04-25T10:40:05.530Z,15.95
2018-04-25T10:42:33.819Z,15.94
2018-04-25T10:45:02.076Z,15.98
2018-04-25T10:47:30.347Z,16.07
2018-04-25T10:49:58.606Z,16.03
2018-04-25T10:52:27.659Z,16.39
2018-04-25T10:54:55.927Z,16.47
2018-04-25T10:57:24.278Z,16.41
2018-04-25T10:59:52.599Z,16.22
2018-04-25T11:02:20.920Z,16.11
2018-04-25T11:04:49.157Z,16.43
2018-04-25T11:07:17.441Z,16.38
2018-04-25T11:09:46.508Z,16.60
2018-04-25T11:12:14.799Z,16.24
2018-04-25T11:14:44.296Z,16.34
2018-04-25T11:17:12.584Z,17.11
2018-04-25T11:19:40.866Z,17.00
2018-04-25T11:22:09.118Z,17.15
2018-04-25T11:24:37.411Z,17.18
2018-04-25T11:27:05.715Z,17.11
2018-04-25T11:29:34.829Z,17.04
2018-04-25T11:32:03.118Z,16.85
2018-04-25T11:34:31.414Z,16.80
2018-04-25T11:36:59.696Z,16.92
2018-04-25T11:39:27.966Z,16.88
2018-04-25T11:41:56.246Z,16.46
2018-04-25T11:44:24.599Z,16.57
2018-04-25T11:46:52.914Z,17.18
2018-04-25T11:49:21.293Z,17.57
2018-04-25T11:51:49.560Z,17.47
2018-04-25T11:54:17.847Z,17.44
2018-04-25T11:56:46.123Z,17.35
2018-04-25T11:59:14.395Z,17.45
2018-04-25T12:01:42.663Z,16.76
2018-04-25T12:04:10.930Z,16.66
2018-04-25T12:06:39.263Z,16.20
2018-04-25T12:09:08.386Z,15.78
2018-04-25T12:11:36.665Z,16.10
2018-04-25T12:14:04.949Z,16.57
2018-04-25T12:16:33.226Z,16.95
2018-04-25T12:19:01.547Z,16.93
2018-04-25T12:21:29.815Z,17.07
2018-04-25T12:23:58.096Z,17.68
2018-04-25T12:26:26.421Z,17.69
2018-04-25T12:28:54.755Z,17.93
2018-04-25T12:31:23.802Z,17.33
2018-04-25T12:33:52.107Z,17.93
2018-04-25T12:36:20.451Z,17.89
2018-04-25T12:38:48.751Z,18.36
2018-04-25T12:41:17.023Z,18.31
2018-04-25T12:43:45.388Z,18.03
2018-04-25T12:46:13.663Z,17.57
2018-04-25T12:48:41.970Z,17.77
2018-04-25T12:51:10.253Z,17.19
2018-04-25T12:53:38.510Z,18.26
2018-04-25T12:56:06.799Z,18.81
2018-04-25T12:58:35.071Z,19.06
2018-04-25T13:01:03.428Z,18.86
2018-04-25T13:03:31.690Z,18.12
2018-04-25T13:05:59.959Z,16.74
2018-04-25T13:08:28.258Z,15.99
2018-04-25T13:10:56.623Z,16.48
2018-04-25T13:13:24.919Z,16.79
2018-04-25T13:15:53.191Z,16.75
2018-04-25T13:18:21.463Z,16.66
2018-04-25T13:20:49.742Z,17.25
2018-04-25T13:23:18.122Z,17.46
2018-04-25T13:25:46.508Z,17.23
2018-04-25T13:28:14.795Z,17.64
2018-04-25T13:30:43.143Z,18.29
2018-04-25T13:33:11.426Z,18.83
2018-04-25T13:35:39.713Z,19.46
2018-04-25T13:38:08.014Z,18.49
2018-04-25T13:40:36.279Z,18.18
2018-04-25T13:43:04.542Z,18.41
2018-04-25T13:45:32.906Z,18.72
2018-04-25T13:48:01.158Z,18.42
2018-04-25T13:50:29.454Z,18.21
2018-04-25T13:52:57.735Z,17.53
2018-04-25T13:55:26.011Z,17.76
2018-04-25T13:57:54.306Z,19.91
2018-04-25T14:00:22.580Z,20.65
2018-04-25T14:02:50.853Z,20.86
2018-04-25T14:05:19.114Z,21.61
2018-04-25T14:07:47.426Z,21.22
2018-04-25T14:10:15.739Z,22.49
2018-04-25T14:12:44.787Z,22.09
2018-04-25T14:15:13.101Z,21.94
2018-04-25T14:17:42.142Z,19.34
2018-04-25T14:20:10.413Z,19.78
2018-04-25T14:22:38.692Z,20.54
2018-04-25T14:25:06.979Z,19.91
2018-04-25T14:27:35.337Z,20.50
2018-04-25T14:30:03.710Z,20.96
2018-04-25T14:32:31.901Z,20.46
2018-04-25T14:35:00.182Z,21.49
2018-04-25T14:37:28.447Z,21.97
2018-04-25T14:39:57.550Z,22.38
2018-04-25T14:42:25.850Z,23.35
2018-04-25T14:44:54.131Z,22.94
2018-04-25T14:47:22.470Z,21.91
2018-04-25T14:49:50.733Z,21.22
2018-04-25T14:52:19.030Z,19.19
2018-04-25T14:54:47.300Z,19.62
2018-04-25T14:57:15.586Z,19.47
2018-04-25T14:59:43.839Z,18.86
2018-04-25T15:02:18.074Z,19.20
2018-04-25T15:04:46.347Z,19.69
2018-04-25T15:07:14.619Z,19.16
2018-04-25T15:09:42.895Z,20.34
2018-04-25T15:12:11.170Z,19.35
2018-04-25T15:14:39.462Z,18.88
2018-04-25T15:17:07.767Z,18.97
2018-04-25T15:19:36.102Z,20.12
2018-04-25T15:22:04.384Z,19.85
2018-04-25T15:24:32.662Z,18.80
2018-04-25T15:27:00.944Z,17.89
2018-04-25T15:29:29.236Z,17.70
2018-04-25T15:31:57.510Z,17.82
2018-04-25T15:34:25.867Z,17.73
2018-04-25T15:36:54.170Z,17.66
2018-04-25T15:39:23.987Z,18.29
2018-04-25T15:41:52.279Z,19.53
2018-04-25T15:44:20.583Z,18.73
2018-04-25T15:46:49.643Z,17.97
2018-04-25T15:49:17.947Z,17.37
2018-04-25T15:51:47.070Z,16.59
2018-04-25T15:54:15.347Z,16.64
2018-04-25T15:56:43.632Z,16.38
2018-04-25T15:59:11.899Z,18.04
2018-04-25T16:01:40.166Z,17.83
2018-04-25T16:04:08.456Z,18.84
2018-04-25T16:06:36.728Z,18.95
2018-04-25T16:09:05.020Z,16.85
2018-04-25T16:11:33.317Z,16.48
2018-04-25T16:14:01.616Z,16.11
2018-04-25T16:16:29.942Z,16.12
2018-04-25T16:18:58.212Z,16.28
2018-04-25T16:21:26.535Z,17.86
2018-04-25T16:23:54.932Z,19.14
2018-04-25T16:26:23.283Z,20.00
2018-04-25T16:28:51.584Z,21.37
2018-04-25T16:31:19.908Z,20.55
2018-04-25T16:33:48.190Z,21.35
2018-04-25T16:36:16.468Z,21.10
2018-04-25T16:38:44.738Z,22.02
2018-04-25T16:41:13.039Z,21.35
2018-04-25T16:43:42.107Z,21.60
2018-04-25T16:46:10.395Z,21.52
2018-04-25T16:48:38.671Z,21.07
2018-04-25T16:51:06.977Z,20.99
2018-04-25T16:53:35.242Z,21.78
2018-04-25T16:56:03.503Z,21.38
2018-04-25T16:58:31.970Z,20.71
2018-04-25T17:01:00.247Z,20.63
2018-04-25T17:03:28.632Z,20.49
2018-04-25T17:05:57.694Z,19.52
2018-04-25T17:08:26.821Z,19.97
2018-04-25T17:10:55.112Z,21.03
2018-04-25T17:13:23.379Z,19.89
2018-04-25T17:15:51.679Z,20.16
2018-04-25T17:18:19.935Z,19.71
2018-04-25T17:20:48.211Z,18.64
2018-04-25T17:23:16.577Z,19.05
2018-04-25T17:25:44.864Z,19.91
2018-04-25T17:28:13.518Z,19.38
2018-04-25T17:30:41.844Z,18.31
2018-04-25T17:33:10.129Z,16.84
2018-04-25T17:35:38.478Z,17.67
2018-04-25T17:38:06.747Z,17.74
2018-04-25T17:40:35.129Z,17.93
2018-04-25T17:43:03.411Z,16.87
2018-04-25T17:45:31.828Z,16.09
2018-04-25T17:48:01.111Z,16.11
2018-04-25T17:50:29.459Z,16.70
2018-04-25T17:52:57.791Z,15.56
2018-04-25T17:55:27.152Z,14.84
2018-04-25T17:57:55.668Z,14.01
2018-04-25T18:00:25.315Z,14.13
2018-04-25T18:02:54.074Z,13.83
2018-04-25T18:05:22.840Z,13.78
2018-04-25T18:07:52.054Z,13.45
2018-04-25T18:10:21.488Z,13.48
2018-04-25T18:12:50.664Z,13.44
2018-04-25T18:15:19.848Z,13.41
2018-04-25T18:17:49.351Z,13.20
2018-04-25T18:20:18.448Z,13.33
2018-04-25T18:22:46.926Z,13.10
2018-04-25T18:25:16.153Z,13.33
2018-04-25T18:27:45.340Z,13.35
2018-04-25T18:30:14.319Z,13.02
2018-04-25T18:32:44.293Z,12.84
2018-04-25T18:35:14.388Z,12.94
2018-04-25T18:37:45.223Z,13.01
2018-04-25T18:40:15.287Z,13.17
2018-04-25T18:42:45.196Z,13.10
2018-04-25T18:45:15.154Z,13.25
2018-04-25T18:47:45.117Z,13.29
2018-04-25T18:50:15.045Z,13.33
2018-04-25T18:52:45.203Z,13.40
2018-04-25T18:55:15.225Z,13.07
2018-04-25T18:57:45.072Z,13.08
2018-04-25T19:00:15.103Z,13.19
2018-04-25T19:02:44.999Z,13.31
2018-04-25T19:05:14.955Z,13.39
2018-04-25T19:07:44.827Z,13.39
2018-04-25T19:10:16.393Z,13.29
2018-04-25T19:12:46.453Z,13.05
2018-04-25T19:15:16.477Z,12.90
2018-04-25T19:17:46.313Z,12.71
2018-04-25T19:20:19.898Z,12.55
2018-04-25T19:22:50.816Z,12.50
2018-04-25T19:25:20.627Z,12.34
2018-04-25T19:27:50.511Z,12.31
2018-04-25T19:30:20.681Z,12.10
2018-04-25T19:32:50.426Z,12.09
2018-04-25T19:35:21.121Z,12.03
2018-04-25T19:37:50.882Z,12.10
2018-04-25T19:40:20.683Z,12.18
2018-04-25T19:42:50.526Z,12.35
2018-04-25T19:45:21.273Z,12.43
2018-04-25T19:47:51.129Z,12.36
2018-04-25T19:50:21.259Z,12.20
2018-04-25T19:52:51.338Z,12.12
2018-04-25T19:55:21.417Z,11.86
2018-04-25T19:57:51.351Z,11.79
2018-04-25T20:00:21.372Z,11.93
2018-04-25T20:02:51.064Z,12.01
2018-04-25T20:05:21.002Z,12.02
2018-04-25T20:07:51.057Z,11.93
2018-04-25T20:10:20.819Z,11.77
2018-04-25T20:12:50.745Z,11.72
2018-04-25T20:15:24.722Z,11.44
2018-04-25T20:17:54.561Z,11.35
2018-04-25T20:20:24.509Z,11.15
2018-04-25T20:22:54.400Z,11.03
2018-04-25T20:25:24.197Z,10.94
2018-04-25T20:27:54.203Z,10.87
2018-04-25T20:30:24.045Z,10.87
2018-04-25T20:32:53.780Z,10.79
2018-04-25T20:35:23.673Z,10.73
2018-04-25T20:37:52.140Z,10.42
2018-04-25T20:40:21.215Z,10.31
2018-04-25T20:42:50.420Z,10.23
2018-04-25T20:45:18.796Z,10.19
2018-04-25T20:47:47.090Z,10.19
2018-04-25T20:50:15.393Z,10.12
2018-04-25T20:52:43.691Z,10.10
2018-04-25T20:55:11.986Z,9.94
2018-04-25T20:57:40.278Z,9.95
2018-04-25T21:00:08.683Z,9.80
2018-04-25T21:02:37.789Z,9.79
2018-04-25T21:05:06.070Z,9.85
2018-04-25T21:07:35.144Z,9.79
2018-04-25T21:10:05.123Z,9.85
2018-04-25T21:12:33.395Z,9.69
2018-04-25T21:15:01.665Z,9.73
2018-04-25T21:17:29.943Z,9.66
2018-04-25T21:19:58.196Z,9.67
2018-04-25T21:22:27.243Z,9.63
2018-04-25T21:24:55.505Z,9.63
2018-04-25T21:27:23.772Z,9.65
2018-04-25T21:29:52.059Z,9.74
2018-04-25T21:32:20.326Z,9.81
2018-04-25T21:34:48.595Z,9.68
2018-04-25T21:37:16.861Z,9.80
2018-04-25T21:39:45.118Z,9.91
2018-04-25T21:42:14.169Z,10.02
2018-04-25T21:44:42.444Z,10.09
2018-04-25T21:47:10.756Z,10.19
2018-04-25T21:49:39.015Z,10.10
2018-04-25T21:52:07.296Z,10.09
2018-04-25T21:54:35.568Z,10.18
2018-04-25T21:57:03.835Z,10.16
2018-04-25T21:59:32.110Z,10.02
2018-04-25T22:02:07.330Z,10.01
2018-04-25T22:04:35.602Z,10.05
2018-04-25T22:07:03.868Z,10.00
2018-04-25T22:09:32.148Z,9.92
2018-04-25T22:12:00.434Z,9.74
2018-04-25T22:14:28.703Z,9.71
2018-04-25T22:19:42.171Z,9.37
2018-04-25T22:22:10.434Z,9.26
2018-04-25T22:24:38.801Z,9.20
2018-04-25T22:27:07.078Z,9.09
2018-04-25T22:29:35.455Z,9.12
2018-04-25T22:32:03.732Z,9.08
2018-04-25T22:34:32.024Z,8.99
2018-04-25T22:37:00.275Z,8.97
2018-04-25T22:39:28.532Z,8.90
2018-04-25T22:41:57.586Z,8.73
2018-04-25T22:44:25.932Z,8.78
2018-04-25T22:46:54.209Z,8.75
2018-04-25T22:49:22.466Z,8.62
2018-04-25T22:51:50.785Z,8.36
2018-04-25T22:54:19.058Z,8.46
2018-04-25T22:56:47.543Z,8.50
2018-04-25T22:59:15.816Z,8.58
2018-04-25T23:01:44.071Z,8.33
2018-04-25T23:04:12.427Z,8.19
2018-04-25T23:06:41.467Z,8.15
2018-04-25T23:09:09.756Z,8.18
2018-04-25T23:11:38.018Z,8.16
2018-04-25T23:14:06.272Z,8.16
2018-04-25T23:16:34.549Z,8.07
2018-04-25T23:19:02.820Z,8.04
2018-04-25T23:21:31.074Z,7.96
2018-04-25T23:24:00.140Z,7.93
2018-04-25T23:26:28.411Z,7.96
2018-04-25T23:28:56.665Z,7.83
2018-04-25T23:31:24.935Z,7.93
2018-04-25T23:33:53.225Z,7.98
2018-04-25T23:36:21.496Z,8.03
2018-04-25T23:38:49.845Z,8.02
2018-04-25T23:41:18.227Z,7.97
2018-04-25T23:43:46.483Z,7.90
2018-04-25T23:46:15.605Z,8.04
2018-04-25T23:48:43.879Z,8.02
2018-04-25T23:51:12.256Z,8.00
2018-04-25T23:53:40.522Z,7.94
2018-04-25T23:56:08.815Z,8.01
2018-04-25T23:58:37.071Z,7.98
